createdAt,value
2022-12-23T00:00:19.027Z,99530.38
2022-12-23T00:02:46.727Z,99548.94
2022-12-23T00:05:14.782Z,99549.34
2022-12-23T00:07:42.110Z,99545.63
2022-12-23T00:10:10.145Z,99538.91
2022-12-23T00:12:56.192Z,99543.72
2022-12-23T00:15:23.815Z,99537.38
2022-12-23T00:17:51.202Z,99539.03
2022-12-23T00:20:18.680Z,99538.34
2022-12-23T00:23:05.069Z,99534.78
2022-12-23T00:25:44.678Z,99521.59
2022-12-23T00:28:16.857Z,99513.81
2022-12-23T00:30:54.426Z,99521.22
2022-12-23T00:33:23.588Z,99520.16
2022-12-23T00:35:51.247Z,99515.84
2022-12-23T00:38:38.811Z,99512.31
2022-12-23T00:41:27.133Z,99516.09
2022-12-23T00:43:54.506Z,99499.75
2022-12-23T00:46:22.217Z,99494.59
2022-12-23T00:49:18.808Z,99505.81
2022-12-23T00:51:46.631Z,99495.09
2022-12-23T00:54:14.164Z,99503.53
2022-12-23T00:56:41.568Z,99510.00
2022-12-23T00:59:09.148Z,99516.31
2022-12-23T01:01:55.563Z,99533.19
2022-12-23T01:04:42.349Z,99520.66
2022-12-23T01:07:09.929Z,99511.66
2022-12-23T01:09:37.527Z,99507.81
2022-12-23T01:12:05.200Z,99502.91
2022-12-23T01:14:32.642Z,99492.00
2022-12-23T01:17:00.458Z,99499.81
2022-12-23T01:19:28.247Z,99502.81
2022-12-23T01:21:55.636Z,99497.72
2022-12-23T01:24:23.245Z,99494.28
2022-12-23T01:26:50.671Z,99488.50
2022-12-23T01:29:18.057Z,99476.19
2022-12-23T01:31:45.744Z,99474.41
2022-12-23T01:34:13.129Z,99484.69
2022-12-23T01:36:40.572Z,99486.84
2022-12-23T01:39:08.193Z,99472.31
2022-12-23T01:41:54.256Z,99476.28
2022-12-23T01:44:48.271Z,99458.78
2022-12-23T01:47:33.294Z,99456.09
2022-12-23T01:50:04.360Z,99462.78
2022-12-23T01:52:32.051Z,99450.72
2022-12-23T01:54:59.573Z,99449.44
2022-12-23T01:57:27.233Z,99445.37
2022-12-23T02:00:13.217Z,99448.12
2022-12-23T02:02:59.630Z,99439.13
2022-12-23T02:05:27.356Z,99435.28
2022-12-23T02:08:13.359Z,99427.41
2022-12-23T02:10:50.129Z,99431.34
2022-12-23T02:14:14.803Z,99430.63
2022-12-23T02:16:47.385Z,99426.69
2022-12-23T02:19:17.902Z,99423.53
2022-12-23T02:22:25.809Z,99421.69
2022-12-23T02:25:20.538Z,99421.25
2022-12-23T02:28:14.934Z,99419.63
2022-12-23T02:30:46.999Z,99423.25
2022-12-23T02:33:28.159Z,99424.31
2022-12-23T02:36:11.489Z,99422.84
2022-12-23T02:38:54.260Z,99426.12
2022-12-23T02:41:25.280Z,99439.94
2022-12-23T02:44:01.955Z,99435.22
2022-12-23T02:46:58.511Z,99434.31
2022-12-23T02:49:40.329Z,99430.84
2022-12-23T02:52:11.795Z,99437.06
2022-12-23T02:54:42.066Z,99439.63
2022-12-23T02:57:09.561Z,99445.37
2022-12-23T02:59:40.517Z,99446.94
2022-12-23T03:02:08.201Z,99449.69
2022-12-23T03:04:35.729Z,99437.87
2022-12-23T03:07:07.476Z,99440.72
2022-12-23T03:10:04.024Z,99445.53
2022-12-23T03:12:45.074Z,99443.41
2022-12-23T03:15:41.551Z,99435.81
2022-12-23T03:18:08.663Z,99423.97
2022-12-23T03:20:42.547Z,99432.25
2022-12-23T03:23:34.547Z,99420.78
2022-12-23T03:26:32.604Z,99428.13
2022-12-23T03:29:13.268Z,99437.94
2022-12-23T03:31:40.965Z,99420.13
2022-12-23T03:34:14.493Z,99422.16
2022-12-23T03:36:47.193Z,99421.34
2022-12-23T03:39:17.515Z,99415.31
2022-12-23T03:41:57.274Z,99431.22
2022-12-23T03:44:36.971Z,99422.78
2022-12-23T03:47:45.320Z,99415.78
2022-12-23T03:50:13.503Z,99423.81
2022-12-23T03:52:56.242Z,99424.34
2022-12-23T03:55:27.471Z,99420.72
2022-12-23T03:58:12.671Z,99416.44
2022-12-23T04:00:44.818Z,99414.66
2022-12-23T04:04:07.132Z,99408.41
2022-12-23T04:06:42.595Z,99409.62
2022-12-23T04:09:11.014Z,99418.06
2022-12-23T04:11:38.381Z,99409.75
2022-12-23T04:14:06.383Z,99410.78
2022-12-23T04:16:34.079Z,99400.53
2022-12-23T04:19:01.495Z,99400.09
2022-12-23T04:21:28.916Z,99395.09
2022-12-23T04:23:56.578Z,99405.59
2022-12-23T04:26:23.948Z,99413.56
2022-12-23T04:28:51.286Z,99412.66
2022-12-23T04:31:19.098Z,99403.22
2022-12-23T04:33:46.523Z,99411.47
2022-12-23T04:36:13.980Z,99420.16
2022-12-23T04:38:41.655Z,99425.03
2022-12-23T04:41:08.994Z,99426.41
2022-12-23T04:43:36.375Z,99432.47
2022-12-23T04:46:04.089Z,99422.44
2022-12-23T04:48:31.439Z,99426.97
2022-12-23T04:51:01.952Z,99426.81
2022-12-23T04:53:29.726Z,99432.91
2022-12-23T04:55:57.060Z,99435.69
2022-12-23T04:58:25.163Z,99428.00
2022-12-23T05:01:09.234Z,99423.72
2022-12-23T05:03:37.291Z,99412.34
2022-12-23T05:06:05.257Z,99399.41
2022-12-23T05:08:32.837Z,99409.56
2022-12-23T05:11:00.202Z,99420.59
2022-12-23T05:13:27.861Z,99413.69
2022-12-23T05:15:55.497Z,99413.44
2022-12-23T05:18:23.003Z,99410.53
2022-12-23T05:20:50.606Z,99406.66
2022-12-23T05:23:18.094Z,99414.44
2022-12-23T05:25:51.831Z,99408.06
2022-12-23T05:28:20.167Z,99414.00
2022-12-23T05:30:47.510Z,99406.50
2022-12-23T05:33:15.196Z,99399.31
2022-12-23T05:35:42.827Z,99401.28
2022-12-23T05:38:10.254Z,99430.63
2022-12-23T05:40:37.690Z,99415.72
2022-12-23T05:43:05.603Z,99439.16
2022-12-23T05:45:35.529Z,99449.34
2022-12-23T05:48:03.132Z,99439.25
2022-12-23T05:50:30.794Z,99426.50
2022-12-23T05:53:02.172Z,99430.25
2022-12-23T05:55:29.612Z,99437.41
2022-12-23T05:57:57.214Z,99419.91
2022-12-23T06:00:24.677Z,99412.34
2022-12-23T06:02:54.172Z,99420.84
2022-12-23T06:05:21.958Z,99415.19
2022-12-23T06:07:49.276Z,99418.19
2022-12-23T06:10:17.034Z,99419.03
2022-12-23T06:12:44.382Z,99420.72
2022-12-23T06:15:11.900Z,99423.97
2022-12-23T06:17:39.518Z,99415.25
2022-12-23T06:20:07.305Z,99414.84
2022-12-23T06:22:34.675Z,99426.16
2022-12-23T06:25:02.455Z,99411.84
2022-12-23T06:27:29.834Z,99409.69
2022-12-23T06:29:57.223Z,99416.31
2022-12-23T06:32:24.834Z,99394.47
2022-12-23T06:34:53.343Z,99394.47
2022-12-23T06:37:21.108Z,99400.91
2022-12-23T06:39:48.817Z,99407.72
2022-12-23T06:42:16.152Z,99415.97
2022-12-23T06:44:43.569Z,99427.03
2022-12-23T06:47:11.278Z,99436.06
2022-12-23T06:49:38.726Z,99448.78
2022-12-23T06:52:06.124Z,99453.78
2022-12-23T06:54:33.792Z,99459.19
2022-12-23T06:57:01.159Z,99459.50
2022-12-23T06:59:29.898Z,99467.56
2022-12-23T07:01:57.828Z,99478.38
2022-12-23T07:04:25.294Z,99481.22
2022-12-23T07:06:52.784Z,99489.38
2022-12-23T07:09:20.403Z,99510.41
2022-12-23T07:11:47.736Z,99495.31
2022-12-23T07:14:15.077Z,99498.41
2022-12-23T07:16:42.827Z,99482.59
2022-12-23T07:19:10.218Z,99478.38
2022-12-23T07:21:38.738Z,99471.50
2022-12-23T07:24:07.316Z,99462.38
2022-12-23T07:26:34.669Z,99456.41
2022-12-23T07:29:02.190Z,99456.59
2022-12-23T07:31:29.924Z,99457.34
2022-12-23T07:33:57.311Z,99462.09
2022-12-23T07:36:24.694Z,99457.22
2022-12-23T07:38:52.420Z,99453.06
2022-12-23T07:41:19.752Z,99454.22
2022-12-23T07:43:47.212Z,99447.06
2022-12-23T07:46:15.028Z,99454.34
2022-12-23T07:48:42.877Z,99454.66
2022-12-23T07:51:10.209Z,99442.53
2022-12-23T07:53:38.008Z,99443.16
2022-12-23T07:56:05.893Z,99435.03
2022-12-23T07:58:33.215Z,99430.13
2022-12-23T08:01:05.537Z,99436.97
2022-12-23T08:03:33.591Z,99431.22
2022-12-23T08:06:05.566Z,99423.63
2022-12-23T08:08:33.259Z,99422.41
2022-12-23T08:11:02.280Z,99432.09
2022-12-23T08:13:30.437Z,99435.97
2022-12-23T08:15:58.712Z,99440.41
2022-12-23T08:18:26.208Z,99429.19
2022-12-23T08:20:57.469Z,99422.13
2022-12-23T08:23:25.283Z,99402.44
2022-12-23T08:26:02.937Z,99406.37
2022-12-23T08:28:30.942Z,99411.59
2022-12-23T08:31:09.607Z,99414.78
2022-12-23T08:33:38.266Z,99418.94
2022-12-23T08:36:06.717Z,99431.81
2022-12-23T08:38:34.376Z,99431.75
2022-12-23T08:41:02.081Z,99426.69
2022-12-23T08:43:35.583Z,99414.31
2022-12-23T08:46:03.956Z,99411.22
2022-12-23T08:48:31.969Z,99409.09
2022-12-23T08:51:03.083Z,99394.25
2022-12-23T08:53:30.743Z,99401.66
2022-12-23T08:56:04.099Z,99403.09
2022-12-23T08:58:32.154Z,99397.91
2022-12-23T09:01:03.352Z,99388.00
2022-12-23T09:03:30.785Z,99392.03
2022-12-23T09:05:58.612Z,99381.25
2022-12-23T09:08:26.051Z,99383.25
2022-12-23T09:10:53.399Z,99378.47
2022-12-23T09:13:30.831Z,99385.75
2022-12-23T09:16:02.263Z,99400.00
2022-12-23T09:18:29.880Z,99391.63
2022-12-23T09:21:05.346Z,99405.00
2022-12-23T09:23:33.073Z,99401.44
2022-12-23T09:26:00.455Z,99407.19
2022-12-23T09:28:27.871Z,99396.84
2022-12-23T09:30:55.532Z,99401.00
2022-12-23T09:33:22.956Z,99398.37
2022-12-23T09:35:50.323Z,99396.41
2022-12-23T09:38:17.933Z,99400.38
2022-12-23T09:40:45.726Z,99384.13
2022-12-23T09:43:20.448Z,99385.66
2022-12-23T09:46:10.857Z,99373.09
2022-12-23T09:48:40.716Z,99376.22
2022-12-23T09:51:09.142Z,99370.25
2022-12-23T09:53:49.692Z,99382.81
2022-12-23T09:56:25.513Z,99381.16
2022-12-23T09:59:31.834Z,99380.53
2022-12-23T10:02:04.908Z,99378.88
2022-12-23T10:04:54.444Z,99369.94
2022-12-23T10:07:28.926Z,99367.78
2022-12-23T10:09:56.600Z,99365.97
2022-12-23T10:12:39.670Z,99352.72
2022-12-23T10:15:26.840Z,99359.38
2022-12-23T10:17:56.320Z,99359.03
2022-12-23T10:20:47.993Z,99356.03
2022-12-23T10:23:26.047Z,99347.78
2022-12-23T10:25:53.678Z,99348.09
2022-12-23T10:28:21.045Z,99340.81
2022-12-23T10:31:23.753Z,99330.91
2022-12-23T10:33:48.714Z,99327.28
2022-12-23T10:36:23.887Z,99325.63
2022-12-23T10:38:58.705Z,99328.88
2022-12-23T10:41:42.168Z,99320.97
2022-12-23T10:44:40.572Z,99321.16
2022-12-23T10:47:25.089Z,99322.16
2022-12-23T10:50:11.368Z,99301.81
2022-12-23T10:52:40.071Z,99303.97
2022-12-23T10:55:26.089Z,99293.22
2022-12-23T10:57:57.582Z,99300.16
2022-12-23T11:00:25.604Z,99311.06
2022-12-23T11:03:17.148Z,99310.22
2022-12-23T11:05:44.979Z,99314.69
2022-12-23T11:08:12.517Z,99314.84
2022-12-23T11:10:39.915Z,99316.00
2022-12-23T11:13:07.496Z,99309.88
2022-12-23T11:15:36.986Z,99309.41
2022-12-23T11:18:11.539Z,99304.09
2022-12-23T11:20:40.668Z,99300.75
2022-12-23T11:23:31.508Z,99297.97
2022-12-23T11:26:06.543Z,99302.44
2022-12-23T11:28:35.595Z,99289.38
2022-12-23T11:31:11.789Z,99287.56
2022-12-23T11:33:57.434Z,99287.06
2022-12-23T11:36:26.122Z,99279.63
2022-12-23T11:39:07.168Z,99283.41
2022-12-23T11:41:39.375Z,99293.56
2022-12-23T11:44:25.929Z,99306.41
2022-12-23T11:46:53.625Z,99295.81
2022-12-23T11:49:21.772Z,99303.09
2022-12-23T11:52:07.571Z,99316.34
2022-12-23T11:54:35.236Z,99319.00
2022-12-23T11:57:04.038Z,99302.78
2022-12-23T11:59:37.075Z,99301.94
2022-12-23T12:02:11.604Z,99301.13
2022-12-23T12:04:39.357Z,99307.41
2022-12-23T12:07:06.718Z,99308.06
2022-12-23T12:09:34.238Z,99306.75
2022-12-23T12:12:12.079Z,99303.94
2022-12-23T12:14:48.318Z,99303.91
2022-12-23T12:17:29.683Z,99310.06
2022-12-23T12:20:04.893Z,99309.88
2022-12-23T12:22:46.578Z,99307.37
2022-12-23T12:25:19.492Z,99306.22
2022-12-23T12:27:59.904Z,99320.31
2022-12-23T12:30:31.781Z,99326.62
2022-12-23T12:33:16.045Z,99326.12
2022-12-23T12:35:48.459Z,99332.72
2022-12-23T12:38:27.255Z,99321.47
2022-12-23T12:40:58.175Z,99312.72
2022-12-23T12:43:33.553Z,99317.19
2022-12-23T12:46:23.090Z,99305.13
2022-12-23T12:49:02.447Z,99303.44
2022-12-23T12:51:58.903Z,99318.47
2022-12-23T12:54:37.513Z,99319.97
2022-12-23T12:57:04.916Z,99316.16
2022-12-23T12:59:34.678Z,99322.28
2022-12-23T13:02:25.250Z,99316.50
2022-12-23T13:05:20.772Z,99312.19
2022-12-23T13:07:57.622Z,99321.13
2022-12-23T13:10:48.735Z,99314.53
2022-12-23T13:13:25.407Z,99318.34
2022-12-23T13:16:11.090Z,99311.38
2022-12-23T13:18:44.186Z,99311.34
2022-12-23T13:21:16.113Z,99312.84
2022-12-23T13:23:59.273Z,99323.28
2022-12-23T13:27:12.415Z,99329.25
2022-12-23T13:29:58.040Z,99328.44
2022-12-23T13:32:57.366Z,99320.16
2022-12-23T13:36:05.653Z,99321.81
2022-12-23T13:38:58.474Z,99317.50
2022-12-23T13:41:45.936Z,99325.28
2022-12-23T13:44:15.105Z,99320.31
2022-12-23T13:46:59.696Z,99325.09
2022-12-23T13:49:33.499Z,99329.22
2022-12-23T13:52:15.792Z,99321.31
2022-12-23T13:54:51.630Z,99319.16
2022-12-23T13:57:36.558Z,99318.81
2022-12-23T14:00:16.678Z,99321.28
2022-12-23T14:03:00.087Z,99315.50
2022-12-23T14:05:31.460Z,99333.22
2022-12-23T14:07:59.994Z,99327.03
2022-12-23T14:10:27.551Z,99332.41
2022-12-23T14:13:00.570Z,99333.56
2022-12-23T14:15:57.100Z,99328.56
2022-12-23T14:18:55.381Z,99323.13
2022-12-23T14:21:32.623Z,99323.25
2022-12-23T14:24:36.567Z,99332.53
2022-12-23T14:27:26.810Z,99322.28
2022-12-23T14:30:35.907Z,99330.84
2022-12-23T14:33:06.410Z,99333.03
2022-12-23T14:35:40.295Z,99324.94
2022-12-23T14:38:16.157Z,99332.91
2022-12-23T14:40:43.659Z,99341.47
2022-12-23T14:43:27.393Z,99337.19
2022-12-23T14:46:01.981Z,99345.78
2022-12-23T14:48:35.970Z,99342.81
2022-12-23T14:51:13.880Z,99336.19
2022-12-23T14:53:59.456Z,99330.53
2022-12-23T14:56:38.921Z,99334.50
2022-12-23T14:59:30.468Z,99343.78
2022-12-23T15:02:03.037Z,99343.31
2022-12-23T15:04:37.165Z,99345.59
2022-12-23T15:07:06.221Z,99351.06
2022-12-23T15:09:38.757Z,99363.00
2022-12-23T15:12:12.791Z,99362.03
2022-12-23T15:14:45.867Z,99365.97
2022-12-23T15:17:24.987Z,99371.25
2022-12-23T15:19:53.283Z,99367.97
2022-12-23T15:22:26.852Z,99371.59
2022-12-23T15:24:59.664Z,99375.72
2022-12-23T15:27:28.898Z,99377.03
2022-12-23T15:29:57.076Z,99370.59
2022-12-23T15:32:24.864Z,99368.47
2022-12-23T15:34:52.469Z,99378.38
2022-12-23T15:37:26.332Z,99377.91
2022-12-23T15:40:11.607Z,99378.38
2022-12-23T15:42:40.054Z,99378.53
2022-12-23T15:45:22.859Z,99367.28
2022-12-23T15:47:50.408Z,99359.03
2022-12-23T15:50:18.261Z,99358.84
2022-12-23T15:52:46.687Z,99355.88
2022-12-23T15:55:15.726Z,99354.88
2022-12-23T15:57:49.837Z,99357.53
2022-12-23T16:00:33.495Z,99356.72
2022-12-23T16:03:03.774Z,99358.19
2022-12-23T16:05:36.815Z,99352.06
2022-12-23T16:08:13.359Z,99364.66
2022-12-23T16:10:40.894Z,99367.94
2022-12-23T16:13:20.032Z,99365.16
2022-12-23T16:15:47.521Z,99356.88
2022-12-23T16:18:32.664Z,99357.38
2022-12-23T16:21:03.519Z,99349.59
2022-12-23T16:23:32.825Z,99358.03
2022-12-23T16:26:01.207Z,99351.75
2022-12-23T16:28:33.780Z,99357.03
2022-12-23T16:31:01.482Z,99362.50
2022-12-23T16:33:43.299Z,99360.37
2022-12-23T16:36:26.167Z,99347.28
2022-12-23T16:38:53.479Z,99353.41
2022-12-23T16:41:21.128Z,99355.06
2022-12-23T16:43:52.464Z,99350.06
2022-12-23T16:46:21.174Z,99355.38
2022-12-23T16:48:59.014Z,99348.28
2022-12-23T16:51:26.638Z,99340.16
2022-12-23T16:53:55.500Z,99343.63
2022-12-23T16:56:34.835Z,99333.56
2022-12-23T16:59:02.606Z,99334.38
2022-12-23T17:01:32.331Z,99335.84
2022-12-23T17:03:59.943Z,99334.34
2022-12-23T17:06:27.607Z,99334.19
2022-12-23T17:08:56.618Z,99338.34
2022-12-23T17:11:29.910Z,99338.47
2022-12-23T17:14:03.894Z,99342.12
2022-12-23T17:16:32.342Z,99324.63
2022-12-23T17:19:00.218Z,99331.25
2022-12-23T17:21:32.370Z,99331.91
2022-12-23T17:24:12.501Z,99332.56
2022-12-23T17:26:39.949Z,99328.94
2022-12-23T17:29:07.590Z,99335.84
2022-12-23T17:31:34.955Z,99350.25
2022-12-23T17:34:02.686Z,99348.47
2022-12-23T17:36:30.383Z,99350.06
2022-12-23T17:38:57.782Z,99349.94
2022-12-23T17:41:28.103Z,99346.44
2022-12-23T17:43:56.082Z,99341.12
2022-12-23T17:46:23.607Z,99343.66
2022-12-23T17:48:51.076Z,99339.34
2022-12-23T17:51:22.173Z,99335.19
2022-12-23T17:53:56.833Z,99331.06
2022-12-23T17:56:26.902Z,99336.06
2022-12-23T17:58:54.389Z,99347.44
2022-12-23T18:01:29.904Z,99340.81
2022-12-23T18:03:58.457Z,99331.47
2022-12-23T18:06:27.215Z,99336.84
2022-12-23T18:08:55.279Z,99325.47
2022-12-23T18:11:28.519Z,99309.44
2022-12-23T18:13:55.917Z,99310.22
2022-12-23T18:16:23.708Z,99316.84
2022-12-23T18:18:51.934Z,99328.44
2022-12-23T18:21:24.074Z,99331.56
2022-12-23T18:23:52.485Z,99327.59
2022-12-23T18:26:19.989Z,99340.94
2022-12-23T18:28:47.434Z,99342.66
2022-12-23T18:31:19.739Z,99334.84
2022-12-23T18:33:47.284Z,99319.84
2022-12-23T18:36:27.264Z,99327.59
2022-12-23T18:38:54.719Z,99328.25
2022-12-23T18:41:22.428Z,99321.13
2022-12-23T18:43:50.126Z,99327.59
2022-12-23T18:46:17.701Z,99333.69
2022-12-23T18:48:45.388Z,99320.56
2022-12-23T18:51:16.747Z,99320.94
2022-12-23T18:53:44.171Z,99323.91
2022-12-23T18:56:15.633Z,99322.06
2022-12-23T18:58:43.216Z,99347.91
2022-12-23T19:01:17.269Z,99346.22
2022-12-23T19:03:45.051Z,99348.59
2022-12-23T19:06:13.312Z,99342.44
2022-12-23T19:08:41.310Z,99339.31
2022-12-23T19:11:12.509Z,99340.50
2022-12-23T19:13:40.131Z,99334.19
2022-12-23T19:16:07.644Z,99350.41
2022-12-23T19:18:35.390Z,99352.41
2022-12-23T19:21:05.866Z,99353.06
2022-12-23T19:23:33.224Z,99353.06
2022-12-23T19:26:00.993Z,99363.97
2022-12-23T19:28:28.378Z,99363.97
2022-12-23T19:30:55.791Z,99357.22
2022-12-23T19:33:23.610Z,99362.06
2022-12-23T19:35:51.294Z,99364.62
2022-12-23T19:38:18.678Z,99363.63
2022-12-23T19:40:46.355Z,99374.38
2022-12-23T19:43:13.735Z,99375.56
2022-12-23T19:45:41.107Z,99365.62
2022-12-23T19:48:09.547Z,99367.63
2022-12-23T19:50:36.936Z,99363.97
2022-12-23T19:53:04.334Z,99371.25
2022-12-23T19:55:31.943Z,99372.75
2022-12-23T19:57:59.355Z,99379.00
2022-12-23T20:00:26.819Z,99384.72
2022-12-23T20:02:58.760Z,99392.38
2022-12-23T20:05:26.764Z,99394.41
2022-12-23T20:07:54.521Z,99395.25
2022-12-23T20:10:21.869Z,99390.44
2022-12-23T20:12:49.260Z,99387.12
2022-12-23T20:15:16.940Z,99379.03
2022-12-23T20:17:44.392Z,99382.50
2022-12-23T20:20:12.044Z,99378.56
2022-12-23T20:22:39.702Z,99373.44
2022-12-23T20:25:07.341Z,99367.63
2022-12-23T20:27:35.354Z,99368.78
2022-12-23T20:30:02.984Z,99366.81
2022-12-23T20:32:31.406Z,99358.69
2022-12-23T20:34:58.915Z,99361.69
2022-12-23T20:37:26.592Z,99362.31
2022-12-23T20:39:53.961Z,99349.56
2022-12-23T20:42:21.317Z,99346.25
2022-12-23T20:44:50.786Z,99339.19
2022-12-23T20:47:18.153Z,99349.09
2022-12-23T20:49:45.530Z,99336.84
2022-12-23T20:52:13.186Z,99347.44
2022-12-23T20:54:40.753Z,99347.78
2022-12-23T20:57:08.076Z,99327.28
2022-12-23T20:59:35.680Z,99334.56
2022-12-23T21:02:03.228Z,99326.75
2022-12-23T21:04:30.709Z,99335.22
2022-12-23T21:06:58.315Z,99327.75
2022-12-23T21:09:25.753Z,99324.59
2022-12-23T21:11:53.069Z,99320.50
2022-12-23T21:14:20.687Z,99329.25
2022-12-23T21:16:48.144Z,99333.25
2022-12-23T21:19:17.656Z,99330.25
2022-12-23T21:21:45.675Z,99319.00
2022-12-23T21:24:13.179Z,99316.53
2022-12-23T21:26:40.576Z,99311.25
2022-12-23T21:29:09.019Z,99307.09
2022-12-23T21:31:38.267Z,99315.87
2022-12-23T21:34:06.146Z,99315.53
2022-12-23T21:36:35.552Z,99316.34
2022-12-23T21:39:04.164Z,99317.19
2022-12-23T21:41:34.016Z,99313.38
2022-12-23T21:44:01.618Z,99296.69
2022-12-23T21:46:29.186Z,99295.69
2022-12-23T21:48:57.253Z,99296.19
2022-12-23T21:51:28.545Z,99298.84
2022-12-23T21:53:58.242Z,99308.41
2022-12-23T21:56:27.824Z,99313.31
2022-12-23T21:58:59.548Z,99317.66
2022-12-23T22:01:27.295Z,99312.22
2022-12-23T22:03:55.721Z,99300.66
2022-12-23T22:06:27.909Z,99298.66
2022-12-23T22:08:55.763Z,99279.50
2022-12-23T22:11:28.225Z,99263.78
2022-12-23T22:13:59.409Z,99260.81
2022-12-23T22:16:27.704Z,99255.16
2022-12-23T22:18:55.618Z,99245.28
2022-12-23T22:21:23.819Z,99235.19
2022-12-23T22:23:52.189Z,99220.50
2022-12-23T22:26:25.138Z,99218.84
2022-12-23T22:28:57.379Z,99227.56
2022-12-23T22:31:38.404Z,99235.31
2022-12-23T22:34:06.177Z,99245.03
2022-12-23T22:36:33.587Z,99237.63
2022-12-23T22:39:01.358Z,99235.34
2022-12-23T22:41:29.373Z,99232.69
2022-12-23T22:43:57.038Z,99225.44
2022-12-23T22:46:24.735Z,99215.31
2022-12-23T22:48:52.919Z,99208.91
2022-12-23T22:51:25.461Z,99209.06
2022-12-23T22:53:53.159Z,99202.59
2022-12-23T22:56:20.925Z,99195.63
2022-12-23T22:58:48.567Z,99191.47
2022-12-23T23:01:23.129Z,99202.06
2022-12-23T23:03:56.667Z,99216.03
2022-12-23T23:06:28.587Z,99218.16
2022-12-23T23:08:56.108Z,99210.06
2022-12-23T23:11:23.941Z,99214.50
2022-12-23T23:13:51.318Z,99215.16
2022-12-23T23:16:18.758Z,99219.12
2022-12-23T23:18:46.529Z,99223.09
2022-12-23T23:21:14.292Z,99208.69
2022-12-23T23:23:41.625Z,99210.88
2022-12-23T23:26:10.269Z,99209.03
2022-12-23T23:28:39.409Z,99206.38
2022-12-23T23:31:40.368Z,99205.91
2022-12-23T23:33:55.006Z,99208.22
2022-12-23T23:36:22.528Z,99208.37
2022-12-23T23:38:49.900Z,99201.91
2022-12-23T23:41:22.813Z,99188.53
2022-12-23T23:43:51.609Z,99186.75
2022-12-23T23:46:19.485Z,99157.13
2022-12-23T23:48:46.938Z,99153.34
2022-12-23T23:51:14.262Z,99152.88
2022-12-23T23:53:41.921Z,99175.03
2022-12-23T23:56:09.426Z,99187.06
2022-12-23T23:58:36.954Z,99203.44
